In Rescue
 
Open Full Screen Window  High Contrast Mode
Wind Gusting 17 knots
12
July 25, 2021 9:44 AM EDT
Weather Information
Wind Direction
  270 °
Wind Speed
  12 kt (14 mph)
Wind Gust
  17 kt (20 mph)
Altimeter
29.85 in
Visibility
10 SM
Temperature
25° C
77° F
Dewpoint
17° C
63° F
Humidity
61%
1hr Rain Fall
00.00 in.
24hr Rain Fall
00.86 in.
Sky Condition
Clear
VFR

METAR KOSC 251344Z AUTO 27012G17KT 10SM CLR 25/17 A2985 RMK AO2 T02480166

FAA Disclaimer: The data displayed is for advisory purposes only and is not to be used for flight planning or operations.